• Join FlightAware (Why Join?)
  • Login
  • US Flag 
06:31AM EDT


 

Airport Tracker/Info


-or-


 

Live Flight TrackerFlight Track Log ✈ MMY64 ✈ 14-Jul-2013 ✈ KSAC - KRDD

Flight Track Log - Related Links

Times and Time Zones

All times are in EDT time to prevent confusion due to time zone crossing. See the MMY64 flight status page for this flight to view local times or setup timezone preferences in your user account.

Time Position Orientation Groundspeed Altitude Reporting Facility
EDT Latitude Longitude Course Direction KTS MPH feet Rate Location/Type
07:04PM 38.5000 -121.5667 270° West 78 90 1,800  Level Northern Cal TRACON
07:05PM 38.5167 -121.5833 322° Northwest 97 112 2,300 540 Climbing Northern Cal TRACON
07:06PM 38.5333 -121.6000 322° Northwest 87 100 2,900 540 Climbing Northern Cal TRACON
07:07PM 38.5500 -121.6167 322° Northwest 94 108 3,400 480 Climbing Northern Cal TRACON
07:08PM 38.6881 -121.5719 343° North  Level FlightAware Approximate
07:08PM 38.5833 -121.6333 339° North 94 108 3,900  Level Northern Cal TRACON
07:09PM 38.6167 -121.6333 360° North 98 113 4,400 480 Climbing Northern Cal TRACON
07:10PM 38.6333 -121.6500 322° Northwest 101 116 4,900 480 Climbing Northern Cal TRACON
07:11PM 38.6667 -121.6500 360° North 100 115 5,400 480 Climbing Northern Cal TRACON
07:12PM 38.6833 -121.6667 322° Northwest 100 115 5,900 300 Climbing Northern Cal TRACON
07:13PM 38.7167 -121.6833 339° North 116 133 6,000  Climbing Northern Cal TRACON
07:14PM 38.7500 -121.6833 360° North 135 155 6,000  Level Northern Cal TRACON
07:15PM 38.7833 -121.7000 339° North 127 146 6,000  Level Northern Cal TRACON
07:15PM 38.7978 -121.7011 357° North 125 144 6,000  Level Oakland Center
07:16PM 38.8300 -121.7136 343° North 122 140 6,000  Level Oakland Center
07:17PM 38.8619 -121.7272 342° North 120 138 6,000  Level Oakland Center
07:18PM 38.9006 -121.7417 344° North 122 140 6,000  Level Oakland Center
07:19PM 38.9331 -121.7553 342° North 123 142 6,000  Level Oakland Center
07:20PM 38.9650 -121.7681 343° North 120 138 6,000  Level Oakland Center
07:21PM 38.9964 -121.7833 339° North 120 138 6,000  Level Oakland Center
07:22PM 39.0283 -121.7986 340° North 122 140 6,000  Level Oakland Center
07:23PM 39.0606 -121.8114 343° North 122 140 6,000  Level Oakland Center
07:24PM 39.0931 -121.8231 344° North 122 140 6,000  Level Oakland Center
07:25PM 39.1250 -121.8364 342° North 122 140 6,000  Level Oakland Center
07:26PM 39.1561 -121.8472 345° North 118 136 6,000  Level Oakland Center
07:27PM 39.1947 -121.8631 342° North 120 138 6,000  Level Oakland Center
07:28PM 39.2264 -121.8778 340° North 122 140 6,000  Level Oakland Center
07:29PM 39.2575 -121.8908 342° North 118 136 6,000  Level Oakland Center
07:30PM 39.2897 -121.9056 341° North 121 139 6,000  Level Oakland Center
07:31PM 39.3225 -121.9161 346° North 122 140 6,000  Level Oakland Center
07:32PM 39.3550 -121.9275 345° North 121 139 6,000  Level Oakland Center
07:34PM 39.3875 -121.9406 343° North 122 140 6,000  Level Oakland Center
07:35PM 39.4194 -121.9556 340° North 122 140 6,000  Level Oakland Center
07:36PM 39.4583 -121.9708 343° North 119 137 6,000  Level Oakland Center
07:37PM 39.4906 -121.9856 341° North 122 140 6,000  Level Oakland Center
07:38PM 39.5233 -121.9964 346° North 121 139 6,000  Level Oakland Center
07:39PM 39.5556 -122.0056 348° North 119 137 6,000  Level Oakland Center
07:40PM 39.5872 -122.0200 341° North 120 138 6,000  Level Oakland Center
07:41PM 39.6194 -122.0331 343° North 121 139 6,000  Level Oakland Center
07:42PM 39.6525 -122.0458 343° North 124 143 6,000  Level Oakland Center
07:43PM 39.6919 -122.0625 342° North 123 142 6,000  Level Oakland Center
07:44PM 39.7228 -122.0778 339° North 120 138 6,000  Level Oakland Center
07:45PM 39.7550 -122.0908 343° North 121 139 6,000  Level Oakland Center
07:46PM 39.7878 -122.1039 343° North 122 140 6,000  Level Oakland Center
07:47PM 39.8208 -122.1169 343° North 123 142 6,000  Level Oakland Center
07:48PM 39.8542 -122.1306 343° North 125 144 6,000  Level Oakland Center
07:49PM 39.8875 -122.1433 344° North 125 144 6,000  Level Oakland Center
07:50PM 39.9217 -122.1564 344° North 127 146 6,000  Level Oakland Center
07:51PM 39.9628 -122.1719 344° North 129 148 6,000  Level Oakland Center
07:52PM 39.9956 -122.1853 343° North 125 144 6,000  Level Oakland Center
07:53PM 40.0281 -122.1992 342° North 123 142 6,000 -240 Level Oakland Center
07:54PM 40.0603 -122.2153 339° North 124 143 5,600 -540 Descending Oakland Center
07:55PM 40.0928 -122.2303 341° North 125 144 5,000 -540 Descending Oakland Center
07:56PM 40.1253 -122.2394 348° North 124 143 4,500 -540 Descending Oakland Center
07:57PM 40.1664 -122.2408 359° North 125 144 3,900 -300 Descending Oakland Center
07:58PM 40.1972 -122.2469 351° North 120 138 4,000  Climbing Oakland Center
07:59PM 40.2294 -122.2531 352° North 118 136 4,000  Level Oakland Center
08:00PM 40.2625 -122.2550 357° North 118 136 4,000  Level Oakland Center
08:01PM 40.2933 -122.2572 357° North 116 133 4,000  Level Oakland Center
08:02PM 40.3261 -122.2603 356° North 116 133 4,000 -60 Level Oakland Center
08:03PM 40.3642 -122.2656 354° North 116 133 3,900 -300 Descending Oakland Center
08:04PM 40.3942 -122.2667 358° North 112 129 3,400 -600 Descending Oakland Center
08:05PM 40.4258 -122.2675 359° North 112 129 2,700 -780 Descending Oakland Center
08:06PM 40.4561 -122.2664 North 111 128 1,900 -600 Descending Oakland Center
08:07PM 40.4847 -122.2706 354° North 107 123 1,500 -240 Descending Oakland Center
08:08PM 40.5128 -122.2700 North 104 120 1,500 -180 Level Oakland Center
08:09PM 40.5400 -122.2672 North 101 116 1,200 -180 Descending Oakland Center
08:10PM 40.5431 -122.3025 277° West 99 114 1,200  Level Oakland Center